createdAt,value
2023-01-30T09:01:57.146Z,14.80
2023-01-30T09:04:26.561Z,14.87
2023-01-30T09:06:54.529Z,14.57
2023-01-30T09:09:22.538Z,14.47
2023-01-30T09:11:51.439Z,15.70
2023-01-30T09:14:20.039Z,14.67
2023-01-30T09:16:48.334Z,14.30
2023-01-30T09:19:17.873Z,13.57
2023-01-30T09:21:45.932Z,13.50
2023-01-30T09:24:13.770Z,14.60
2023-01-30T09:26:44.937Z,14.67
2023-01-30T09:29:13.100Z,13.83
2023-01-30T09:31:41.576Z,13.07
2023-01-30T09:34:09.484Z,13.13
2023-01-30T09:36:40.002Z,12.70
2023-01-30T09:39:07.984Z,13.40
2023-01-30T09:41:48.957Z,13.43
2023-01-30T09:44:41.175Z,12.50
2023-01-30T09:47:13.150Z,15.17
2023-01-30T09:49:54.469Z,13.43
2023-01-30T09:52:32.148Z,11.93
2023-01-30T09:55:03.665Z,13.43
2023-01-30T09:57:33.089Z,13.47
2023-01-30T10:00:08.528Z,11.53
2023-01-30T10:02:46.787Z,12.10
2023-01-30T10:05:15.295Z,12.23
2023-01-30T10:08:09.606Z,11.43
2023-01-30T10:10:55.024Z,13.07
2023-01-30T10:13:47.152Z,15.20
2023-01-30T10:16:20.140Z,13.37
2023-01-30T10:19:26.166Z,14.17
2023-01-30T10:22:09.708Z,13.33
2023-01-30T10:24:53.363Z,13.13
2023-01-30T10:27:22.431Z,12.37
2023-01-30T10:29:57.610Z,13.80
2023-01-30T10:32:31.861Z,12.67
2023-01-30T10:35:06.274Z,13.50
2023-01-30T10:37:41.677Z,12.80
2023-01-30T10:40:19.382Z,13.50
2023-01-30T10:42:55.080Z,13.80
2023-01-30T10:45:31.990Z,15.93
2023-01-30T10:48:13.652Z,14.90
2023-01-30T10:50:51.324Z,14.17
2023-01-30T10:53:27.973Z,14.03
2023-01-30T10:56:06.190Z,14.40
2023-01-30T10:58:42.417Z,14.00
2023-01-30T11:01:19.351Z,12.73
2023-01-30T11:03:51.313Z,13.23
2023-01-30T11:06:23.898Z,14.17
2023-01-30T11:08:52.207Z,14.20
2023-01-30T11:11:29.792Z,13.73
2023-01-30T11:14:05.812Z,13.53
2023-01-30T11:16:43.293Z,14.33
2023-01-30T11:19:21.646Z,14.07
2023-01-30T11:21:52.183Z,13.87
2023-01-30T11:24:31.697Z,14.17
2023-01-30T11:27:11.289Z,14.20
2023-01-30T11:29:41.089Z,13.13
2023-01-30T11:32:15.879Z,12.63
2023-01-30T11:34:46.896Z,13.40
2023-01-30T11:37:16.771Z,14.47
2023-01-30T11:39:54.476Z,12.77
2023-01-30T11:42:27.025Z,14.40
2023-01-30T11:45:15.556Z,13.17
2023-01-30T11:47:57.210Z,13.57
2023-01-30T11:50:39.416Z,14.03
2023-01-30T11:53:29.479Z,14.00
2023-01-30T11:56:06.245Z,13.73
2023-01-30T11:58:40.006Z,12.57
2023-01-30T12:01:11.109Z,14.00
2023-01-30T12:03:49.711Z,13.60
2023-01-30T12:06:31.478Z,14.00
2023-01-30T12:08:59.782Z,13.30
2023-01-30T12:11:42.294Z,13.57
2023-01-30T12:14:21.174Z,13.70
2023-01-30T12:16:59.390Z,14.07
2023-01-30T12:19:37.007Z,12.40
2023-01-30T12:22:14.000Z,12.90
2023-01-30T12:24:45.930Z,13.40
2023-01-30T12:27:18.834Z,12.83
2023-01-30T12:29:58.378Z,13.10
2023-01-30T12:32:29.657Z,14.20
2023-01-30T12:34:57.648Z,13.17
2023-01-30T12:37:50.924Z,12.57
2023-01-30T12:40:28.581Z,13.60
2023-01-30T12:43:30.394Z,13.47
2023-01-30T12:46:11.984Z,13.20
2023-01-30T12:52:14.447Z,13.73
2023-01-30T12:54:51.953Z,12.50
2023-01-30T12:57:30.362Z,13.53
2023-01-30T13:00:16.012Z,14.13
2023-01-30T13:03:03.640Z,14.00
2023-01-30T13:05:39.084Z,13.90
2023-01-30T13:08:19.061Z,14.03
2023-01-30T13:10:52.914Z,13.20
2023-01-30T13:13:27.316Z,14.00
2023-01-30T13:16:03.529Z,13.17
2023-01-30T13:18:37.732Z,14.60
2023-01-30T13:21:11.095Z,13.10
2023-01-30T13:23:53.075Z,14.23
2023-01-30T13:26:25.384Z,13.60
2023-01-30T13:28:58.277Z,13.63
2023-01-30T13:31:31.161Z,13.67
2023-01-30T13:34:06.983Z,13.43
2023-01-30T13:36:41.759Z,13.77
2023-01-30T13:41:54.106Z,13.50
2023-01-30T13:44:25.804Z,13.00
2023-01-30T13:46:55.835Z,13.47
2023-01-30T13:49:36.371Z,13.83
2023-01-30T13:52:15.490Z,14.20
2023-01-30T13:54:58.417Z,13.43
2023-01-30T13:57:34.506Z,14.30
2023-01-30T14:00:28.169Z,14.83
2023-01-30T14:03:29.101Z,13.83
2023-01-30T14:06:12.159Z,14.47
2023-01-30T14:08:52.402Z,15.20
2023-01-30T14:11:57.440Z,16.47
2023-01-30T14:14:29.204Z,14.50
2023-01-30T14:16:59.128Z,15.00
2023-01-30T14:19:36.149Z,16.37
2023-01-30T14:22:19.558Z,15.53
2023-01-30T14:25:41.543Z,14.13
2023-01-30T14:28:49.470Z,14.50
2023-01-30T14:31:54.474Z,15.30
2023-01-30T14:34:50.577Z,14.10
2023-01-30T14:37:31.718Z,14.20
2023-01-30T14:40:00.638Z,14.63
2023-01-30T14:42:30.016Z,14.43
2023-01-30T14:45:03.327Z,14.10
2023-01-30T14:47:42.560Z,15.50
2023-01-30T14:50:21.846Z,14.90
2023-01-30T14:52:56.588Z,15.13
2023-01-30T14:55:29.555Z,15.07
2023-01-30T14:58:00.070Z,15.40
2023-01-30T15:00:32.271Z,15.40
2023-01-30T15:03:03.427Z,16.67
2023-01-30T15:05:38.627Z,16.43
2023-01-30T15:08:14.315Z,15.30
2023-01-30T15:11:00.413Z,16.70
2023-01-30T15:13:42.169Z,15.93
2023-01-30T15:16:35.499Z,16.70
2023-01-30T15:19:18.006Z,16.67
2023-01-30T15:21:57.002Z,16.87
2023-01-30T15:25:10.299Z,16.50
2023-01-30T15:27:54.715Z,18.23
2023-01-30T15:30:35.181Z,17.90
2023-01-30T15:33:22.859Z,17.57
2023-01-30T15:35:59.928Z,16.93
2023-01-30T15:38:30.887Z,16.87
2023-01-30T15:41:02.924Z,17.50
2023-01-30T15:43:57.426Z,18.90
2023-01-30T15:46:36.772Z,17.00
2023-01-30T15:49:26.409Z,17.10
2023-01-30T15:51:54.669Z,17.90
2023-01-30T15:54:25.141Z,16.83
2023-01-30T15:56:57.277Z,17.83
2023-01-30T15:59:32.476Z,15.97
2023-01-30T16:02:05.973Z,18.47
2023-01-30T16:04:33.941Z,17.27
2023-01-30T16:07:15.884Z,17.20
2023-01-30T16:09:49.610Z,16.03
2023-01-30T16:12:28.666Z,17.23
2023-01-30T16:15:05.730Z,17.73
2023-01-30T16:17:40.682Z,17.13
2023-01-30T16:20:15.492Z,16.83
